Andover, MN

7:32 PM CST on February 08, 2016 (GMT -0600)
Lake John | | Change Station
CLOSE
Current Station
Personal Weather Station
Location: Annandale, MN
Elevation: 1066 ft
Nearby Weather Stations

Elev 1066 ft 45.26 °N, 94.16 °W | Updated 5 minutes ago

Overcast
Overcast
12.0 °F
Feels Like -3 °F
N
13.5
Wind Variable Wind from NW

Today
High -- | Low -- °F
--% Chance of Precip.
Yesterday
High -- | Low -- °F
Precip. -- in
Pressure 30.01 in
Visibility 10.0 miles
Clouds Scattered Clouds 2700 ft
Overcast 4700 ft
Windchill -3 °F
Dew Point 7 °F
Humidity 81%
Rainfall 0.00 in
Snow Depth Not available.
7:28 AM 5:33 PM
New Moon, 0% visible
METAR KMGG 090117Z AUTO 32016G21KT 10SM -SN SCT027 OVC047 M10/M13 A3001 RMK AO2 T10971135
Pressure 30.01 in
Visibility 10.0 miles
Clouds Scattered Clouds 2700 ft
Overcast 4700 ft
Windchill -3 °F
Dew Point 7 °F
Humidity 81%
Rainfall 0.00 in
Snow Depth Not available.
7:28 AM 5:33 PM
New Moon, 0% visible
METAR KMGG 090117Z AUTO 32016G21KT 10SM -SN SCT027 OVC047 M10/M13 A3001 RMK AO2 T10971135

10-Day Weather Forecast

Almanac

Astronomy

Feb. 08, 2016 Rise Set
Actual Time
Civil Twilight
Nautical Twilight
Astronomical Twilight
Moon
Length of Visible Light
Length of Day
Tomorrow will be .
, % of the Moon is Illuminated

Today's Extremes

State Highs State Lows

Community

WunderPhotos

Upload Photos

1,891,527 photos uploaded!

WunderBlog® & News

Nearby

Air Quality

  Air Quality AQ Index Pollutant
Not available.

Snow Depth

Station Depth Elevation

Earthquake Activity

City Distance Mag. Time & Date
Minimum magnitude displayed is 2.5.

Coastal Water Temperatures

Place Temperature

Stations

Nearby Weather Stations

Station Location Temp. Windchill Dew Point Humidity Wind Precip. Elev Updated Type
                   

Watches & Warnings

There are currently no watches in effect.